Date,TemperatureHighF,TemperatureAvgF,TemperatureLowF,DewpointHighF,DewpointAvgF,DewpointLowF,HumidityHigh,HumidityAvg,HumidityLow,PressureMaxIn,PressureMinIn,WindSpeedMaxMPH,WindSpeedAvgMPH,GustSpeedMaxMPH,PrecipitationSumIn
2014-1-1,66.0,62.0,59.0,63.0,58.1,52.0,92,86,71,30.26,30.09,11,7,16,0.00
2014-1-2,82.0,69.7,63.0,69.0,64.4,61.0,93,84,56,30.08,29.84,16,8,26,0.00
2014-1-3,66.0,49.1,43.0,63.0,37.2,27.0,89,64,43,30.27,29.91,15,12,27,0.00
2014-1-4,67.0,56.0,45.0,58.0,48.8,-99.9,91,79,65,30.24,30.09,8,4,12,0.00
2014-1-5,82.0,67.6,59.0,66.0,60.6,56.0,91,79,53,30.10,29.97,10,4,15,0.00
2014-1-6,78.0,63.2,45.0,66.0,44.1,-99.9,93,73,31,30.29,29.97,18,9,28,0.00
2014-1-7,48.0,41.1,35.0,32.0,7.9,-99.9,80,45,27,30.42,30.28,15,11,25,0.00
2014-1-8,66.0,53.4,36.0,53.0,44.3,31.0,82,71,55,30.40,30.28,12,9,18,0.00
2014-1-9,69.0,62.8,59.0,65.0,58.7,53.0,92,86,75,30.31,30.22,9,6,15,0.00
2014-1-10,77.0,70.3,67.0,69.0,66.3,64.0,93,87,72,30.23,30.08,6,3,35,0.00
2014-1-11,84.0,74.5,67.0,70.0,66.7,63.0,93,78,52,30.10,29.94,16,9,26,0.00
2014-1-24,59.0,47.8,39.0,38.0,25.7,-99.9,89,54,28,30.47,30.30,15,9,24,0.00
2014-1-25,70.0,53.8,41.0,50.0,42.2,-99.9,86,68,47,30.29,30.04,11,5,15,0.00
2014-1-26,66.0,58.0,45.0,59.0,54.0,43.0,93,87,75,30.09,30.00,7,3,42,0.00
2014-1-27,77.0,65.5,58.0,64.0,59.4,56.0,93,81,55,30.04,29.95,11,5,17,0.00
2014-1-28,80.0,65.0,52.0,62.0,56.7,50.0,94,77,45,30.07,29.97,9,3,14,0.00
2014-1-29,66.0,54.5,46.0,61.0,50.7,43.0,93,87,79,30.18,29.98,15,9,22,0.00
2014-1-30,52.0,49.2,46.0,50.0,47.2,44.0,93,92,91,30.18,30.09,12,8,20,0.00
2014-1-31,64.0,56.9,51.0,62.0,55.1,49.0,94,93,92,30.13,30.04,8,5,13,0.00
2014-2-1,81.0,67.8,60.0,69.0,61.7,-99.9,94,84,61,30.15,30.06,7,3,10,0.00
2014-2-2,85.0,72.1,65.0,70.0,64.3,57.0,93,79,40,30.17,30.06,11,4,52,0.00
2014-2-3,85.0,70.8,59.0,69.0,62.6,57.0,94,77,44,30.14,30.03,10,3,15,0.00
2014-2-4,86.0,71.6,62.0,69.0,63.3,59.0,93,77,44,30.14,30.03,10,5,17,0.00
2014-2-5,84.0,71.9,65.0,70.0,66.7,63.0,93,84,58,30.09,29.98,11,4,19,0.00
2014-2-6,70.0,65.6,53.0,68.0,60.4,48.0,92,83,69,30.17,30.04,14,6,32,0.00
2014-2-7,61.0,56.9,51.0,57.0,52.9,47.0,91,86,82,30.18,30.11,12,8,20,0.00
2014-2-8,66.0,59.2,57.0,60.0,55.8,54.0,92,88,79,30.14,30.06,12,6,19,0.00
2014-2-9,73.0,61.4,54.0,54.0,51.9,50.0,93,73,46,30.14,30.05,10,6,17,0.00
2014-2-10,77.0,60.6,45.0,53.0,48.2,44.0,94,68,32,30.13,30.04,6,4,11,0.00
2014-2-11,82.0,64.7,49.0,62.0,53.6,47.0,91,69,39,30.09,29.99,10,5,16,0.00
2014-2-12,79.0,66.6,56.0,62.0,58.9,54.0,93,78,53,30.05,29.73,22,6,32,0.00
2014-2-13,64.0,58.2,44.0,60.0,49.4,40.0,93,73,50,29.99,29.70,20,12,32,0.00
2014-2-14,67.0,53.1,36.0,45.0,37.8,32.0,96,62,28,30.09,29.95,9,4,15,0.00
2014-2-15,71.0,57.0,47.0,53.0,30.4,-99.9,88,55,18,30.15,29.93,15,8,22,0.00
2014-2-16,72.0,53.2,36.0,49.0,38.5,34.0,96,65,25,30.22,30.11,5,3,30,0.00
2014-2-17,79.0,58.8,40.0,48.0,33.0,-99.9,94,57,16,30.26,30.17,5,3,44,0.00
2014-2-18,82.0,63.6,45.0,57.0,49.3,44.0,94,65,27,30.26,30.16,6,3,11,0.00
2014-2-19,84.0,68.1,50.0,62.0,56.5,49.0,94,69,34,30.21,30.08,9,4,14,0.00
2014-2-20,85.0,68.9,52.0,65.0,59.7,50.0,94,75,40,30.19,30.08,13,6,30,0.00
2014-2-21,83.0,72.4,65.0,69.0,65.6,62.0,93,80,52,30.09,30.01,13,6,20,0.00
2014-2-22,81.0,71.7,66.0,70.0,66.7,64.0,93,84,63,30.12,30.03,8,4,37,0.00
2014-2-24,78.0,71.6,62.0,63.0,62.4,59.0,90,73,58,30.08,30.00,7,5,13,0.00
2014-2-25,81.0,67.9,57.0,63.0,59.0,56.0,94,75,42,30.08,29.96,9,4,15,0.00
2014-2-26,78.0,64.3,52.0,64.0,57.5,51.0,94,81,47,30.00,29.74,16,5,26,0.00
2014-2-27,64.0,58.9,54.0,62.0,54.2,49.0,93,84,72,29.98,29.78,12,5,18,0.00
2014-2-28,70.0,57.9,47.0,51.0,44.5,35.0,92,65,28,30.12,29.94,8,5,13,0.00
2014-3-1,72.0,55.6,46.0,58.0,50.1,44.0,94,82,50,30.24,30.09,8,4,12,0.00
2014-3-2,81.0,74.8,64.0,59.0,55.2,50.0,78,52,33,30.21,30.08,9,5,14,0.00
2014-3-3,83.0,68.9,52.0,61.0,55.1,50.0,94,65,34,30.10,29.98,13,6,20,0.00
2014-3-4,82.0,69.6,58.0,65.0,60.5,56.0,94,75,45,30.08,29.99,11,4,15,0.00
2014-3-5,76.0,66.1,61.0,64.0,60.4,58.0,93,82,64,30.07,30.00,9,5,12,0.00
2014-3-6,69.0,67.2,65.0,66.0,63.9,62.0,92,88,84,29.94,29.69,14,5,67,0.00
2014-3-7,67.0,60.7,50.0,62.0,52.8,42.0,93,75,58,30.08,29.78,15,10,25,0.00
2014-3-8,73.0,57.1,43.0,54.0,45.5,-99.9,91,69,45,30.18,30.06,11,4,16,0.00
2014-3-9,79.0,65.7,48.0,57.0,51.7,46.0,94,64,34,30.22,30.10,6,3,11,0.00
2014-3-10,79.0,66.5,52.0,54.0,49.7,44.0,92,59,30,30.15,29.99,8,4,15,0.00
2014-3-11,82.0,65.8,48.0,59.0,46.4,-99.9,94,64,29,30.03,29.86,8,4,14,0.00
2014-3-12,80.0,70.5,65.0,67.0,62.4,58.0,87,75,57,29.87,29.76,19,9,28,0.00
2014-3-13,68.0,60.8,50.0,59.0,35.0,-99.9,84,50,22,30.22,29.86,19,10,26,0.00
2014-3-14,75.0,56.5,39.0,49.0,43.4,37.0,95,65,35,30.29,30.18,11,6,18,0.00
2014-3-15,80.0,64.2,47.0,57.0,50.7,45.0,94,65,35,30.21,30.05,8,4,13,0.00
2014-3-16,84.0,70.4,56.0,62.0,56.2,-99.9,93,66,41,30.06,29.79,16,8,26,0.00
2014-3-17,77.0,71.6,68.0,70.0,64.4,-99.9,91,80,73,29.82,29.70,16,9,24,0.00
2014-3-18,75.0,67.4,60.0,70.0,54.5,47.0,89,66,37,30.06,29.63,18,9,35,0.00
2014-3-19,80.0,61.6,51.0,59.0,50.4,-99.9,94,80,31,30.12,30.03,9,4,13,0.00
2014-3-20,81.0,68.0,58.0,60.0,55.6,-99.9,93,70,44,30.10,29.98,10,5,16,0.00
2014-3-21,82.0,67.5,58.0,63.0,51.4,-99.9,93,70,38,30.12,30.02,12,6,42,0.00
2014-3-22,84.0,73.0,61.0,67.0,59.4,55.0,93,65,38,30.09,29.98,11,6,18,0.00
2014-3-23,83.0,70.3,62.0,65.0,58.9,-99.9,88,69,52,30.07,29.96,13,5,24,0.00
2014-3-24,75.0,68.7,65.0,65.0,62.1,59.0,91,80,56,30.09,29.93,8,4,14,0.00
2014-3-25,73.0,66.4,58.0,63.0,57.5,39.0,92,75,37,30.02,29.86,18,9,30,0.00
2014-3-26,63.0,53.9,43.0,44.0,7.8,-99.9,58,37,27,30.31,30.03,16,9,25,0.00
2014-3-27,68.0,64.8,57.0,56.0,54.2,50.0,75,68,64,30.35,30.24,10,6,18,0.00
2014-3-28,82.0,73.7,62.0,63.0,60.2,57.0,86,64,43,30.17,30.05,16,8,26,0.00
2014-3-29,81.0,70.2,65.0,71.0,65.4,62.0,93,84,66,30.08,29.90,14,6,25,0.00
2014-3-30,76.0,65.2,56.0,64.0,42.6,-99.9,90,57,19,30.09,29.94,13,9,20,0.00
2014-3-31,76.0,61.4,47.0,52.0,46.0,35.0,93,63,25,30.19,30.09,8,4,13,0.00
2014-4-1,83.0,66.8,45.0,57.0,41.0,-99.9,95,53,17,30.21,30.12,7,4,15,0.00
2014-4-2,84.0,66.9,50.0,59.0,52.3,47.0,94,65,28,30.22,30.13,11,4,16,0.00
2014-4-3,86.0,69.6,53.0,63.0,57.4,51.0,93,68,34,30.18,30.06,8,5,50,0.00
2014-4-4,85.0,73.5,60.0,64.0,60.2,56.0,93,66,39,30.11,30.01,11,5,16,0.00
2014-4-5,86.0,72.5,60.0,65.0,59.7,53.0,93,68,32,30.09,29.97,6,3,13,0.00
2014-4-6,86.0,72.6,61.0,66.0,59.4,-99.9,93,70,38,30.05,29.95,12,4,18,0.00
2014-4-7,89.0,77.8,68.0,69.0,64.7,60.0,88,65,38,29.98,29.85,15,9,21,0.00
2014-4-8,77.0,72.3,64.0,72.0,67.0,57.0,89,83,73,29.90,29.72,15,10,25,0.00
2014-4-9,74.0,65.5,57.0,57.0,50.7,44.0,83,60,34,30.19,29.88,11,7,20,0.00
2014-4-10,78.0,62.6,51.0,58.0,49.5,-99.9,93,70,36,30.31,30.18,10,5,15,0.00
2014-4-11,79.0,65.7,52.0,63.0,56.7,49.0,92,74,54,30.28,30.17,13,6,22,0.00
2014-4-14,88.0,80.3,67.0,61.0,58.2,54.0,79,48,31,29.93,29.89,11,5,16,0.00
2014-4-15,86.0,73.2,61.0,73.0,65.7,58.0,92,78,53,29.95,29.80,16,8,30,0.00
2014-4-16,77.0,64.8,53.0,62.0,54.7,45.0,86,70,54,30.15,29.95,13,10,21,0.00
2014-4-17,76.0,68.6,62.0,66.0,61.6,56.0,89,78,70,30.22,30.11,14,8,23,0.00
2014-4-18,82.0,72.3,67.0,70.0,66.2,64.0,91,82,55,30.16,29.94,12,6,21,0.00
2014-5-13,82.0,78.2,74.0,70.0,69.5,69.0,87,75,65,30.09,30.04,11,10,19,0.00
2014-5-14,87.0,78.0,72.0,73.0,70.6,69.0,91,78,55,30.09,29.97,14,8,32,0.00
2014-5-15,88.0,77.5,73.0,73.0,70.7,68.0,90,80,57,30.04,29.91,12,8,19,0.00
2014-5-16,78.0,72.8,64.0,57.0,30.6,-99.9,74,41,25,30.11,30.05,15,13,24,0.00
2014-5-20,69.0,68.2,67.0,61.0,60.8,60.0,78,76,74,30.20,30.20,4,4,6,0.00
2014-5-21,86.0,74.0,58.0,62.0,59.5,55.0,93,63,40,30.22,30.14,9,5,46,0.00
2014-5-22,89.0,77.6,62.0,67.0,60.9,-99.9,89,60,41,30.20,30.05,7,4,13,0.00
2014-5-23,93.0,79.0,65.0,69.0,64.6,59.0,92,65,32,30.13,30.03,7,4,13,0.00
2014-5-24,94.0,81.0,68.0,72.0,64.3,-99.9,92,64,31,30.11,30.02,6,4,11,0.00
2014-5-25,92.0,79.8,69.0,72.0,65.6,-99.9,92,67,39,30.16,30.04,9,5,14,0.00
2014-5-26,87.0,77.3,69.0,74.0,68.5,61.0,93,75,43,30.21,30.12,14,5,36,0.00
2014-5-27,88.0,77.0,66.0,71.0,66.8,64.0,93,72,44,30.19,30.07,11,4,16,0.00
2014-5-28,90.0,75.9,66.0,71.0,66.3,58.0,93,74,34,30.11,30.01,9,4,20,0.00
2014-5-29,90.0,76.5,66.0,72.0,67.1,64.0,92,74,43,30.07,30.00,14,5,34,0.00
2014-6-14,87.0,73.9,70.0,70.0,68.6,67.0,92,84,56,30.11,30.00,15,5,25,0.00
2014-6-15,91.0,74.9,68.0,73.0,61.6,-99.9,93,75,47,30.16,30.05,13,5,18,0.00
2014-6-16,88.0,74.4,67.0,71.0,67.9,65.0,93,82,50,30.19,30.09,7,3,12,0.00
2014-6-17,88.0,79.1,67.0,71.0,68.0,65.0,93,71,48,30.18,30.09,13,5,20,0.00
2014-6-18,87.0,77.0,69.0,72.0,69.6,67.0,93,79,52,30.15,30.08,6,4,12,0.00
2014-6-19,85.0,78.3,68.0,73.0,69.3,65.0,93,74,57,30.16,30.08,8,4,14,0.00
2014-6-20,90.0,79.4,70.0,74.0,69.5,67.0,91,73,47,30.10,30.02,10,6,16,0.00
2014-6-23,90.0,83.1,76.0,74.0,72.0,70.0,89,70,53,30.09,30.04,8,4,11,0.00
2014-6-24,91.0,80.7,72.0,74.0,71.6,69.0,92,75,51,30.16,30.07,11,4,19,0.00
2014-6-25,92.0,81.3,73.0,74.0,71.4,67.0,92,73,43,30.16,30.05,10,4,15,0.00
2014-6-26,92.0,81.0,71.0,73.0,70.7,69.0,92,72,47,30.14,29.97,9,4,12,0.00
2014-6-27,91.0,81.1,73.0,74.0,72.0,70.0,91,75,53,30.13,30.04,10,5,14,0.00
2014-6-29,93.0,81.2,74.0,75.0,72.0,69.0,91,76,45,30.14,30.04,12,5,23,0.00
2014-6-30,87.0,80.0,74.0,75.0,72.9,71.0,91,79,63,30.08,29.94,12,6,18,0.00
2014-7-1,91.0,81.2,74.0,75.0,72.1,70.0,92,75,51,29.97,29.87,16,9,24,0.00
2014-7-2,89.0,79.3,73.0,73.0,70.7,69.0,90,76,52,29.95,29.87,15,7,24,0.00
2014-7-3,91.0,80.0,74.0,76.0,73.1,72.0,91,80,53,30.10,29.95,10,6,17,0.00
2014-7-4,89.0,78.4,74.0,75.0,71.8,68.0,92,80,56,30.14,30.05,7,5,58,0.00
2014-7-5,90.0,77.4,73.0,74.0,71.6,70.0,92,83,54,30.15,30.07,7,4,14,0.00
2014-7-6,90.0,72.8,72.0,75.0,63.7,-99.9,92,81,49,30.11,30.05,14,4,57,0.00
2014-7-7,87.0,77.4,70.0,74.0,70.7,68.0,93,80,59,30.13,30.05,7,3,36,0.00
2014-7-8,91.0,84.2,74.0,75.0,71.9,70.0,92,68,50,30.16,30.08,10,5,56,0.00
2014-7-9,90.0,77.9,71.0,72.0,70.2,68.0,92,78,51,30.16,30.08,18,3,26,0.00
2014-7-25,93.0,84.4,74.0,75.0,72.6,71.0,92,70,50,30.10,30.04,7,4,10,0.00
2014-7-26,92.0,81.6,74.0,75.0,72.9,72.0,92,76,53,30.12,30.04,8,3,12,0.00
2014-7-27,91.0,80.6,76.0,76.0,74.0,73.0,91,80,57,30.10,30.04,10,5,16,0.00
2014-7-28,92.0,84.3,77.0,76.0,73.8,72.0,89,71,52,30.07,30.00,10,7,17,0.00
2014-7-29,89.0,81.7,75.0,77.0,74.0,71.0,89,78,61,29.99,29.94,17,7,31,0.00
2014-7-30,92.0,83.0,75.0,75.0,71.4,66.0,91,70,43,30.00,29.93,6,4,11,0.00
2014-7-31,92.0,70.6,73.0,74.0,58.8,67.0,90,74,45,30.00,29.93,7,3,13,0.00
2014-8-10,91.0,79.6,75.0,76.0,73.2,71.0,92,82,54,30.08,30.02,9,5,20,0.00
2014-8-11,86.0,79.3,75.0,76.0,72.7,70.0,89,79,70,30.07,30.01,10,6,15,0.00
2014-8-12,92.0,85.3,75.0,76.0,72.2,68.0,87,67,44,30.03,29.95,11,6,19,0.00
2014-8-13,90.0,81.4,73.0,76.0,73.4,70.0,92,77,56,30.04,29.97,14,5,21,0.00
2014-8-14,89.0,80.3,73.0,76.0,73.3,71.0,92,80,60,30.05,29.97,9,4,14,0.00
2014-8-15,89.0,80.2,74.0,76.0,72.4,66.0,92,77,59,30.06,29.97,15,6,24,0.00
2014-8-16,89.0,77.9,74.0,75.0,72.4,71.0,91,83,59,30.11,30.00,8,4,13,0.00
2014-8-17,94.0,82.3,74.0,76.0,72.4,70.0,90,73,47,30.14,30.05,8,4,13,0.00
2014-8-18,93.0,83.2,73.0,76.0,72.8,70.0,92,72,45,30.09,29.98,9,3,13,0.00
2014-8-19,95.0,83.0,73.0,77.0,71.9,68.0,92,71,41,30.07,29.97,7,3,14,0.00
2014-8-20,95.0,84.8,74.0,76.0,71.8,68.0,92,67,42,30.11,30.00,6,4,16,0.00
2014-8-21,95.0,83.0,74.0,76.0,73.3,70.0,92,74,46,30.15,30.04,9,3,14,0.00
2014-8-22,95.0,80.9,73.0,76.0,72.0,68.0,92,76,42,30.12,30.00,12,3,19,0.00
2014-8-23,94.0,80.7,71.0,75.0,70.9,68.0,92,74,46,30.03,29.88,10,4,17,0.00
2014-8-24,95.0,79.5,73.0,75.0,69.8,70.0,92,71,43,29.90,29.78,11,4,20,0.00
2014-8-25,89.0,82.6,77.0,75.0,72.3,68.0,88,71,51,29.88,29.80,16,10,27,0.00
2014-8-26,90.0,80.7,72.0,73.0,69.2,65.0,91,69,43,29.96,29.85,13,8,21,0.00
2014-8-27,90.0,79.8,71.0,72.0,69.7,67.0,92,72,48,30.02,29.92,10,5,18,0.00
2014-8-28,91.0,80.0,71.0,75.0,70.7,68.0,93,75,51,30.03,29.95,10,4,16,0.00
2014-8-29,93.0,79.2,73.0,76.0,72.1,69.0,91,80,50,30.16,30.00,11,5,28,0.00
2014-8-30,92.0,78.8,71.0,76.0,71.9,69.0,92,81,51,30.16,30.06,13,4,25,0.00
2014-8-31,90.0,76.8,72.0,76.0,70.0,70.0,93,78,53,30.15,30.07,7,4,13,0.00
2014-9-1,90.0,79.5,72.0,76.0,72.2,69.0,92,79,51,30.14,30.05,16,4,58,0.00
2014-9-2,90.0,80.4,72.0,75.0,71.7,70.0,93,75,51,30.12,30.00,8,4,15,0.00
2014-9-3,89.0,77.0,71.0,75.0,70.8,68.0,93,82,52,30.08,29.99,9,3,16,0.00
2014-9-4,89.0,78.5,71.0,75.0,70.8,68.0,93,78,50,30.12,30.04,12,4,18,0.00
2014-9-23,86.0,75.4,71.0,74.0,70.8,69.0,93,86,63,30.04,29.96,10,4,17,0.00
2014-9-24,83.0,75.7,70.0,73.0,70.4,68.0,93,84,70,30.10,30.00,11,6,19,0.00
2014-9-25,86.0,76.0,70.0,74.0,71.0,67.0,92,84,63,30.11,30.00,10,7,16,0.00
2014-9-26,87.0,76.8,73.0,75.0,71.9,70.0,92,85,63,30.04,29.96,10,4,20,0.00
2014-9-27,89.0,78.0,72.0,74.0,71.6,69.0,92,82,52,30.02,29.94,9,5,16,0.00
2014-9-28,87.0,76.4,73.0,75.0,71.9,71.0,92,84,65,30.02,29.91,8,4,16,0.00
2014-9-29,89.0,77.9,73.0,76.0,72.0,69.0,93,83,51,29.98,29.81,11,4,20,0.00
2014-9-30,82.0,77.2,73.0,75.0,72.3,71.0,92,84,74,29.86,29.81,6,4,15,0.00
2014-10-1,89.0,78.7,73.0,75.0,72.4,70.0,93,82,56,29.98,29.85,11,5,19,0.00
2014-10-2,92.0,81.3,74.0,74.0,71.4,68.0,90,74,48,30.04,29.97,10,4,17,0.00
2014-10-3,91.0,79.2,72.0,76.0,72.3,70.0,93,80,54,30.05,29.93,10,3,17,0.00
2014-10-4,87.0,77.6,66.0,73.0,69.0,57.0,90,75,56,29.95,29.83,13,7,19,0.00
2014-10-5,78.0,65.4,57.0,59.0,51.8,45.0,85,62,38,30.04,29.92,11,6,36,0.00
2014-10-6,82.0,69.6,59.0,65.0,59.3,54.0,90,70,49,30.10,30.01,8,4,12,0.00
2014-10-7,86.0,74.3,66.0,69.0,66.5,63.0,90,78,54,30.11,30.02,8,4,13,0.00
2014-10-8,89.0,76.8,71.0,72.0,68.4,65.0,93,77,45,30.15,30.04,7,3,12,0.00
2014-10-23,82.0,70.2,61.0,60.0,57.4,55.0,87,66,39,30.01,29.92,11,7,17,0.00
2014-10-24,81.0,68.2,59.0,60.0,57.0,54.0,87,69,47,29.99,29.90,11,7,37,0.00
2014-10-25,79.0,67.1,58.0,58.0,54.3,50.0,87,66,39,30.00,29.93,11,7,15,0.00
2014-10-26,81.0,65.3,50.0,59.0,53.2,46.0,94,70,29,30.03,29.94,8,4,12,0.00
2014-10-27,85.0,67.8,51.0,62.0,56.0,49.0,94,70,32,30.12,30.00,7,4,13,0.00
2014-10-28,86.0,70.0,55.0,66.0,59.7,53.0,94,73,39,30.18,30.09,8,4,15,0.00
2014-10-29,84.0,69.7,56.0,68.0,60.1,55.0,94,75,40,30.12,30.00,5,3,8,0.00
2014-10-30,85.0,70.1,59.0,68.0,62.2,57.0,94,78,48,30.01,29.87,5,3,10,0.00
2014-10-31,78.0,69.2,59.0,66.0,58.4,43.0,93,72,30,29.90,29.79,12,6,18,0.00
2014-11-1,63.0,57.2,46.0,53.0,37.5,22.0,88,56,20,30.15,29.87,19,10,29,0.00
2014-11-2,65.0,50.8,38.0,42.0,37.0,31.0,93,63,28,30.30,30.16,12,6,18,0.00
2014-11-3,74.0,56.2,41.0,53.0,46.5,39.0,94,72,43,30.35,30.27,12,6,21,0.00
2014-11-4,80.0,65.4,54.0,59.0,55.2,51.0,92,72,41,30.31,30.20,13,6,23,0.00
2014-11-5,82.0,67.5,57.0,64.0,58.7,55.0,94,76,45,30.24,30.12,10,5,32,0.00
2014-11-6,84.0,69.9,57.0,65.0,59.7,55.0,94,72,40,30.17,29.98,6,4,11,0.00
2014-11-7,78.0,65.5,51.0,63.0,57.3,48.0,93,76,45,30.00,29.92,10,4,35,0.00
2014-11-8,79.0,60.2,50.0,60.0,52.9,48.0,93,77,50,29.97,29.85,9,4,12,0.00
2014-11-9,66.0,61.4,57.0,59.0,57.7,55.0,93,88,79,29.93,29.85,10,6,20,0.00
2014-11-10,76.0,65.0,59.0,63.0,58.9,56.0,91,81,60,29.97,29.90,13,7,19,0.00
2014-11-11,79.0,66.0,55.0,59.0,54.8,50.0,91,69,47,29.96,29.88,14,7,23,0.00
2014-11-12,79.0,58.9,51.0,54.0,46.6,47.0,90,68,34,30.06,29.94,8,4,11,0.00
2014-11-13,82.0,62.5,50.0,57.0,51.8,44.0,94,73,27,30.07,29.97,4,3,8,0.00
2014-11-21,73.0,60.4,51.0,57.0,50.1,45.0,84,69,49,30.27,30.18,15,8,24,0.00
2014-11-22,72.0,64.7,63.0,66.0,61.0,58.0,90,84,82,30.25,30.10,10,7,18,0.00
2014-11-23,84.0,75.2,70.0,71.0,68.9,66.0,92,81,61,30.09,29.88,14,7,22,0.00
2014-11-24,87.0,78.3,71.0,72.0,69.7,67.0,92,75,53,30.02,29.91,10,6,16,0.00
2014-11-25,80.0,73.9,70.0,75.0,71.0,68.0,93,90,82,30.02,29.87,12,5,21,0.00
2014-11-26,72.0,59.2,46.0,69.0,53.2,44.0,92,87,67,30.19,29.84,17,8,27,0.00
2014-11-27,71.0,54.9,43.0,51.0,42.4,37.0,94,68,32,30.28,30.15,12,6,22,0.00
2014-11-28,62.0,49.6,41.0,43.0,38.0,34.0,86,65,42,30.32,30.23,11,8,18,0.00
2014-11-29,72.0,55.0,43.0,53.0,46.7,40.0,93,74,47,30.30,30.22,9,5,16,0.00
2014-11-30,77.0,62.6,50.0,59.0,53.8,48.0,94,75,49,30.33,30.23,14,6,44,0.00
2014-12-1,78.0,65.5,55.0,66.0,59.8,53.0,93,82,58,30.32,30.20,13,5,21,0.00
2014-12-2,76.0,68.3,62.0,68.0,63.5,59.0,92,85,67,30.25,30.13,10,6,35,0.00
2014-12-3,79.0,68.9,61.0,65.0,61.1,58.0,92,77,53,30.20,30.12,12,6,20,0.00
2014-12-4,80.0,68.6,61.0,65.0,61.5,59.0,93,79,58,30.21,30.13,12,7,23,0.00
2014-12-5,72.0,68.4,64.0,68.0,64.8,60.0,92,88,81,30.26,30.17,9,4,54,0.00
2014-12-6,81.0,69.8,63.0,68.0,63.2,61.0,94,80,54,30.22,30.10,6,3,10,0.00
2014-12-7,71.0,65.1,58.0,63.0,60.5,54.0,93,85,68,30.12,30.03,10,6,15,0.00
2014-12-8,69.0,61.9,57.0,64.0,59.0,53.0,93,90,79,30.09,30.01,12,8,47,0.00
2014-12-9,66.0,55.7,49.0,53.0,48.0,41.0,91,77,40,30.07,29.98,13,8,20,0.00
2014-12-10,65.0,48.4,40.0,46.0,36.4,36.0,93,60,34,30.15,30.04,10,5,15,0.00
2014-12-11,64.0,48.5,39.0,46.0,41.4,38.0,96,77,48,30.20,30.08,11,4,16,0.00
2014-12-12,58.0,48.9,43.0,45.0,42.9,40.0,94,80,55,30.26,30.16,6,4,8,0.00
2014-12-13,69.0,51.7,40.0,46.0,38.6,31.0,95,67,26,30.20,30.08,10,4,14,0.00
2014-12-14,72.0,51.2,38.0,46.0,38.1,34.0,95,66,25,30.11,30.03,7,4,12,0.00
2014-12-15,74.0,51.8,37.0,50.0,39.9,34.0,96,71,24,30.14,30.04,5,2,9,0.00
2014-12-16,74.0,54.8,40.0,54.0,45.1,39.0,96,75,29,30.21,30.11,7,3,12,0.00
2014-12-17,75.0,62.3,52.0,59.0,52.8,44.0,93,72,50,30.20,30.08,9,4,16,0.00
2014-12-18,71.0,52.8,40.0,49.0,44.4,39.0,96,77,37,30.18,30.07,7,3,59,0.00
2014-12-20,78.0,54.0,48.0,60.0,46.1,46.0,94,73,40,30.13,30.03,6,3,11,0.00
2014-12-21,79.0,67.0,57.0,64.0,60.2,55.0,94,80,53,30.11,30.00,8,3,12,0.00
2014-12-22,80.0,70.5,64.0,68.0,65.0,62.0,92,83,64,30.05,29.91,11,5,17,0.00
2014-12-23,83.0,72.0,64.0,70.0,66.0,62.0,93,82,55,29.99,29.88,10,5,18,0.00
2014-12-24,82.0,74.7,65.0,71.0,68.2,61.0,91,79,63,29.98,29.84,14,9,26,0.00
2014-12-25,67.0,60.6,52.0,60.0,51.1,46.0,89,74,52,30.23,29.97,9,5,15,0.00
2014-12-26,70.0,61.8,50.0,61.0,55.4,48.0,91,80,68,30.25,30.18,5,4,8,0.00
2014-12-27,82.0,70.1,64.0,67.0,62.7,60.0,90,76,57,30.27,30.15,6,4,11,0.00
2014-12-28,83.0,72.0,62.0,69.0,64.3,60.0,93,78,49,30.19,30.09,8,3,12,0.00
2014-12-29,82.0,70.0,58.0,68.0,62.6,56.0,94,79,52,30.16,30.04,10,4,102,0.00
2014-12-30,73.0,66.7,62.0,68.0,63.8,60.0,94,90,82,30.24,30.09,10,5,14,0.00
2014-12-31,65.0,63.2,61.0,62.0,60.1,58.0,92,90,85,30.29,30.17,12,8,19,0.00
2015-1-1,76.0,66.0,59.0,66.0,61.4,56.0,92,85,71,30.26,30.14,11,7,16,0.00
2015-1-2,76.0,68.1,63.0,68.0,64.6,61.0,94,88,75,30.28,30.19,7,5,11,0.00